createdAt,value
2023-04-18T00:29:26.748Z,101638.48
2023-04-18T00:59:30.114Z,101630.65
2023-04-18T01:29:33.491Z,101628.11
2023-04-18T01:59:36.756Z,101628.05
2023-04-18T02:29:39.743Z,101620.30
2023-04-18T02:59:43.002Z,101622.05
2023-04-18T03:29:46.603Z,101617.70
2023-04-18T03:59:50.475Z,101632.42
2023-04-18T04:29:53.431Z,101648.93
2023-04-18T04:59:56.751Z,101650.70
2023-04-18T05:29:59.878Z,101659.41
2023-04-18T06:00:03.172Z,101666.36
2023-04-18T06:30:06.652Z,101675.88
2023-04-18T07:00:09.883Z,101688.43
2023-04-18T07:30:12.950Z,101702.58
2023-04-18T08:00:16.034Z,101709.27
2023-04-18T08:30:19.555Z,101721.05
2023-04-18T09:00:23.069Z,101724.61
2023-04-18T09:30:26.121Z,101710.37
2023-04-18T10:00:29.447Z,101720.59
2023-04-18T10:30:32.612Z,101709.02
2023-04-18T11:00:35.585Z,101696.81
2023-04-18T11:30:39.240Z,101690.34
2023-04-18T12:00:42.139Z,101689.20
2023-04-18T12:30:46.723Z,101682.03
2023-04-18T13:00:49.694Z,101644.54
2023-04-18T13:30:53.255Z,101630.94
2023-04-18T14:00:56.827Z,101621.61
2023-04-18T14:30:59.897Z,101611.08
2023-04-18T15:01:03.218Z,101619.62
2023-04-18T15:31:06.440Z,101606.64
2023-04-18T16:01:10.514Z,101600.23
2023-04-18T16:31:14.263Z,101592.30
2023-04-18T17:01:17.813Z,101600.84
2023-04-18T17:31:25.697Z,101596.61
2023-04-18T18:01:28.807Z,101619.02
2023-04-18T18:31:32.975Z,101631.41
2023-04-18T19:01:35.986Z,101628.44
2023-04-18T19:31:39.708Z,101628.62
2023-04-18T20:01:42.926Z,101623.22
2023-04-18T20:31:47.792Z,101637.09
2023-04-18T21:01:50.945Z,101621.03
2023-04-18T21:31:55.271Z,101604.16
2023-04-18T22:01:59.907Z,101591.40
2023-04-18T22:32:06.785Z,101569.14
2023-04-18T23:02:11.226Z,101539.05
2023-04-18T23:32:14.387Z,101518.60
